EGHG weather

Yeovil/Westland Aerodrome
Yeovil, England, United Kingdom

Public forecast

Using degrees Celsius for public forecast. Weather courtesy of forecast.io.

Closest aviation weather report (METAR) to Yeovil/Westland Aerodrome

Closest report is RNAS Yeovilton, 4.2 nm (7.8 km) N. Retrieved 2019/10/20 22:50 UTC (42 minutes ago):

EGDY 202250Z AUTO 36006KT 9999 BKN014/// SCT060/// 10/08 Q1016

Closest aviation forecast (TAF) to Yeovil/Westland Aerodrome

Forecast is more than 12 hours old.

Closest forecast is RNAS Yeovilton, 4.2 nm (7.8 km) N. Retrieved 2019/05/01 18:06 UTC (6 months ago):

TAF TAF EGDY 010100Z 3018/0103 CNL